Friday, November 24, 2017, 12:39 AM EST
Back to Local

KFZY, Fulton Oswego County Airport

Location: Fulton, NY, United States Lat: 43.35
Local Time: 12:39 AM EST ( 5:39 GMT) Lon: -76.383
Time Zone: US/Eastern Elev: 475 ft

Show me the last for .
Show Decoded

2017-11-23 23:54 METAR KFZY 240454Z AUTO 22007KT 10SM OVC070 03/M04 A2996 RMK AO2 SLP148
                 T00281039 400281039 =
2017-11-23 22:54 METAR KFZY 240354Z AUTO 22006KT 10SM OVC048 03/M03 A2995 RMK AO2 SLP147
                 T00281033 =
2017-11-23 21:54 METAR KFZY 240254Z AUTO 21006KT 10SM OVC040 03/M03 A2995 RMK AO2 SLP148
                 T00281028 57005 =
2017-11-23 20:54 METAR KFZY 240154Z AUTO 21006KT 10SM BKN031 OVC043 02/M03 A2996 RMK AO2 SLP151
                 T00221033 =
2017-11-23 19:54 METAR KFZY 240054Z AUTO 19006KT 10SM BKN031 BKN040 OVC049 02/M03 A2996 RMK AO2
                 SLP150 T00221033 =
2017-11-23 18:54 METAR KFZY 232354Z AUTO 20008KT 10SM BKN034 OVC050 02/M03 A2997 RMK AO2 SLP153
                 T00171033 10022 20017 55004 =
2017-11-23 18:22 METAR KFZY 232322Z AUTO 19007KT 10SM BKN033 OVC100 02/M03 A2997 RMK AO2
                 T00171033 =
2017-11-23 17:54 METAR KFZY 232254Z AUTO 19007KT 10SM BKN027 OVC038 02/M04 A2997 RMK AO2 SLP152
                 T00171039 =
2017-11-23 16:54 METAR KFZY 232154Z AUTO 20008KT 10SM OVC022 02/M04 A2997 RMK AO2 SLP152
                 T00171044 =
2017-11-23 16:31 METAR KFZY 232131Z AUTO 19007KT 10SM BKN025 OVC031 02/M04 A2998 RMK AO2
                 T00171044 =
2017-11-23 15:54 METAR KFZY 232054Z AUTO 21007KT 10SM SCT036 SCT065 OVC100 02/M05 A2998 RMK AO2
                 SLP158 T00171050 56015 =
2017-11-23 14:54 METAR KFZY 231954Z AUTO 21008KT 10SM SCT039 OVC100 02/M06 A2999 RMK AO2 SLP159
                 T00171056 =
2017-11-23 13:54 METAR KFZY 231854Z AUTO 23010KT 10SM OVC033 02/M06 A3000 RMK AO2 SLP165
                 T00171056 =
2017-11-23 12:54 METAR KFZY 231754Z AUTO 22006KT 10SM OVC037 02/M05 A3003 RMK AO2 SLP173
                 T00171050 10017 21028 58030 =
2017-11-23 11:54 METAR KFZY 231654Z AUTO 18009KT 10SM FEW041 OVC095 01/M05 A3005 RMK AO2 SLP182
                 T00111050 =
2017-11-23 10:54 METAR KFZY 231554Z AUTO 21006KT 10SM OVC036 00/M04 A3010 RMK AO2 SLP198
                 T00001044 =
2017-11-23 09:54 METAR KFZY 231454Z AUTO 19005KT 10SM OVC034 M01/M03 A3012 RMK AO2 SLP204
                 T10111033 58003 =
2017-11-23 08:54 METAR KFZY 231354Z AUTO 22004KT 8SM OVC031 M02/M04 A3013 RMK AO2 SLP208
                 T10171044 =
2017-11-23 07:54 METAR KFZY 231254Z AUTO 20004KT 10SM BKN024 OVC031 M02/M05 A3012 RMK AO2 SLP206
                 T10171050 =
2017-11-23 07:40 METAR KFZY 231240Z AUTO 20004KT 10SM BKN025 OVC038 M02/M06 A3012 RMK AO2
                 T10221056 =
2017-11-23 06:54 METAR KFZY 231154Z AUTO 21005KT 10SM OVC042 M03/M06 A3013 RMK AO2 SLP208 70007
                 T10281061 11022 21039 58008 =
2017-11-23 05:54 METAR KFZY 231054Z AUTO 00000KT 10SM BKN041 M03/M07 A3013 RMK AO2 SLP210
                 T10281067 =
2017-11-23 04:54 METAR KFZY 230954Z AUTO 31004KT 10SM SCT038 M03/M07 A3015 RMK AO2 SLP214
                 T10331072 =
2017-11-23 03:54 METAR KFZY 230854Z AUTO 27006KT 10SM CLR M03/M08 A3015 RMK AO2 SLP215 T10331078
                 53002 =
2017-11-23 02:54 METAR KFZY 230754Z AUTO 29005KT 10SM CLR M03/M07 A3014 RMK AO2 SLP212 T10331072
                 =
2017-11-23 01:54 METAR KFZY 230654Z AUTO 31007KT 10SM SCT026 M03/M07 A3015 RMK AO2 SLP213
                 T10281072 =
2017-11-23 01:25 METAR KFZY 230625Z AUTO 30008KT 10SM BKN028 M02/M07 A3014 RMK AO2 T10221072 =
2017-11-23 00:54 METAR KFZY 230554Z AUTO 30010KT 10SM BKN031 M02/M07 A3015 RMK AO2 SLP213
                 T10221072 10000 21022 55005 =
2017-11-23 00:49 METAR KFZY 230549Z AUTO 31010G21KT 10SM BKN031 M02/M07 A3014 RMK AO2 =

Support USWX by starting your Amazon purchase here.